sensor_id;sensor_type;location;lat;lon;timestamp;temperature;humidity
10802;DHT22;5453;50.852;7.102;2024-01-06T00:00:35;8.50;99.90
10802;DHT22;5453;50.852;7.102;2024-01-06T00:03:07;8.50;99.90
10802;DHT22;5453;50.852;7.102;2024-01-06T00:05:40;8.50;99.90
10802;DHT22;5453;50.852;7.102;2024-01-06T00:08:12;8.50;99.90
10802;DHT22;5453;50.852;7.102;2024-01-06T00:10:46;8.50;99.90
10802;DHT22;5453;50.852;7.102;2024-01-06T00:13:18;8.50;99.90
10802;DHT22;5453;50.852;7.102;2024-01-06T00:15:51;8.50;99.90
10802;DHT22;5453;50.852;7.102;2024-01-06T00:18:23;8.50;99.90
10802;DHT22;5453;50.852;7.102;2024-01-06T00:20:55;8.50;99.90
10802;DHT22;5453;50.852;7.102;2024-01-06T00:23:28;8.50;99.90
10802;DHT22;5453;50.852;7.102;2024-01-06T00:26:01;8.50;99.90
10802;DHT22;5453;50.852;7.102;2024-01-06T00:28:34;8.50;99.90
10802;DHT22;5453;50.852;7.102;2024-01-06T00:31:07;8.50;99.90
10802;DHT22;5453;50.852;7.102;2024-01-06T00:33:39;8.50;99.90
10802;DHT22;5453;50.852;7.102;2024-01-06T00:36:11;8.50;99.90
10802;DHT22;5453;50.852;7.102;2024-01-06T00:38:44;8.50;99.90
10802;DHT22;5453;50.852;7.102;2024-01-06T00:41:18;8.50;99.90
10802;DHT22;5453;50.852;7.102;2024-01-06T00:43:50;8.50;99.90
10802;DHT22;5453;50.852;7.102;2024-01-06T00:46:22;8.60;99.90
10802;DHT22;5453;50.852;7.102;2024-01-06T00:48:55;8.60;99.90
10802;DHT22;5453;50.852;7.102;2024-01-06T00:51:27;8.50;99.90
10802;DHT22;5453;50.852;7.102;2024-01-06T00:54:00;8.50;99.90
10802;DHT22;5453;50.852;7.102;2024-01-06T00:56:33;8.50;99.90
10802;DHT22;5453;50.852;7.102;2024-01-06T00:59:06;8.50;99.90
10802;DHT22;5453;50.852;7.102;2024-01-06T01:01:38;8.60;99.90
10802;DHT22;5453;50.852;7.102;2024-01-06T01:04:11;8.60;99.90
10802;DHT22;5453;50.852;7.102;2024-01-06T01:06:43;8.60;99.90
10802;DHT22;5453;50.852;7.102;2024-01-06T01:09:15;8.50;99.90
10802;DHT22;5453;50.852;7.102;2024-01-06T01:11:49;8.50;99.90
10802;DHT22;5453;50.852;7.102;2024-01-06T01:14:21;8.50;99.90
10802;DHT22;5453;50.852;7.102;2024-01-06T01:16:54;8.50;99.90
10802;DHT22;5453;50.852;7.102;2024-01-06T01:19:26;8.40;99.90
10802;DHT22;5453;50.852;7.102;2024-01-06T01:21:59;8.40;99.90
10802;DHT22;5453;50.852;7.102;2024-01-06T01:24:31;8.40;99.90
10802;DHT22;5453;50.852;7.102;2024-01-06T01:27:05;8.40;99.90
10802;DHT22;5453;50.852;7.102;2024-01-06T01:29:37;8.40;99.90
10802;DHT22;5453;50.852;7.102;2024-01-06T01:32:10;8.30;99.90
10802;DHT22;5453;50.852;7.102;2024-01-06T01:34:42;8.30;99.90
10802;DHT22;5453;50.852;7.102;2024-01-06T01:37:15;8.30;99.90
10802;DHT22;5453;50.852;7.102;2024-01-06T01:39:48;8.30;99.90
10802;DHT22;5453;50.852;7.102;2024-01-06T01:42:21;8.30;99.90
10802;DHT22;5453;50.852;7.102;2024-01-06T01:44:54;8.30;99.90
10802;DHT22;5453;50.852;7.102;2024-01-06T01:47:26;8.30;99.90
10802;DHT22;5453;50.852;7.102;2024-01-06T01:49:59;8.20;99.90
10802;DHT22;5453;50.852;7.102;2024-01-06T01:52:32;8.20;99.90
10802;DHT22;5453;50.852;7.102;2024-01-06T01:55:06;8.20;99.90
10802;DHT22;5453;50.852;7.102;2024-01-06T01:57:41;8.20;99.90
10802;DHT22;5453;50.852;7.102;2024-01-06T02:00:14;8.20;99.90
10802;DHT22;5453;50.852;7.102;2024-01-06T02:02:46;8.20;99.90
10802;DHT22;5453;50.852;7.102;2024-01-06T02:05:19;8.20;99.90
10802;DHT22;5453;50.852;7.102;2024-01-06T02:07:51;8.20;99.90
10802;DHT22;5453;50.852;7.102;2024-01-06T02:10:24;8.20;99.90
10802;DHT22;5453;50.852;7.102;2024-01-06T02:12:57;8.20;99.90
10802;DHT22;5453;50.852;7.102;2024-01-06T02:15:39;8.20;99.90
10802;DHT22;5453;50.852;7.102;2024-01-06T02:18:12;8.20;99.90
10802;DHT22;5453;50.852;7.102;2024-01-06T02:20:46;8.20;99.90
10802;DHT22;5453;50.852;7.102;2024-01-06T02:23:20;8.20;99.90
10802;DHT22;5453;50.852;7.102;2024-01-06T02:25:52;8.20;99.90
10802;DHT22;5453;50.852;7.102;2024-01-06T02:28:24;8.20;99.90
10802;DHT22;5453;50.852;7.102;2024-01-06T02:30:57;8.20;99.90
10802;DHT22;5453;50.852;7.102;2024-01-06T02:33:29;8.20;99.90
10802;DHT22;5453;50.852;7.102;2024-01-06T02:36:01;8.20;99.90
10802;DHT22;5453;50.852;7.102;2024-01-06T02:38:35;8.20;99.90
10802;DHT22;5453;50.852;7.102;2024-01-06T02:41:08;8.20;99.90
10802;DHT22;5453;50.852;7.102;2024-01-06T02:43:40;8.20;99.90
10802;DHT22;5453;50.852;7.102;2024-01-06T02:46:13;8.20;99.90
10802;DHT22;5453;50.852;7.102;2024-01-06T02:48:45;8.20;99.90
10802;DHT22;5453;50.852;7.102;2024-01-06T02:51:17;8.20;99.90
10802;DHT22;5453;50.852;7.102;2024-01-06T02:53:51;8.20;99.90
10802;DHT22;5453;50.852;7.102;2024-01-06T02:56:24;8.20;99.90
10802;DHT22;5453;50.852;7.102;2024-01-06T02:58:56;8.20;99.90
10802;DHT22;5453;50.852;7.102;2024-01-06T03:01:28;8.20;99.90
10802;DHT22;5453;50.852;7.102;2024-01-06T03:04:03;8.20;99.90
10802;DHT22;5453;50.852;7.102;2024-01-06T03:06:36;8.20;99.90
10802;DHT22;5453;50.852;7.102;2024-01-06T03:09:10;8.20;99.90
10802;DHT22;5453;50.852;7.102;2024-01-06T03:11:42;8.20;99.90
10802;DHT22;5453;50.852;7.102;2024-01-06T03:14:15;8.20;99.90
10802;DHT22;5453;50.852;7.102;2024-01-06T03:16:47;8.20;99.90
10802;DHT22;5453;50.852;7.102;2024-01-06T03:19:19;8.20;99.90
10802;DHT22;5453;50.852;7.102;2024-01-06T03:21:56;8.20;99.90
10802;DHT22;5453;50.852;7.102;2024-01-06T03:24:30;8.20;99.90
10802;DHT22;5453;50.852;7.102;2024-01-06T03:27:03;8.20;99.90
10802;DHT22;5453;50.852;7.102;2024-01-06T03:29:35;8.20;99.90
10802;DHT22;5453;50.852;7.102;2024-01-06T03:32:08;8.20;99.90
10802;DHT22;5453;50.852;7.102;2024-01-06T03:34:41;8.20;99.90
10802;DHT22;5453;50.852;7.102;2024-01-06T03:37:13;8.20;99.90
10802;DHT22;5453;50.852;7.102;2024-01-06T03:39:47;8.20;99.90
10802;DHT22;5453;50.852;7.102;2024-01-06T03:42:19;8.20;99.90
10802;DHT22;5453;50.852;7.102;2024-01-06T03:44:52;8.20;99.90
10802;DHT22;5453;50.852;7.102;2024-01-06T03:47:24;8.20;99.90
10802;DHT22;5453;50.852;7.102;2024-01-06T03:49:57;8.20;99.90
10802;DHT22;5453;50.852;7.102;2024-01-06T03:52:29;8.10;99.90
10802;DHT22;5453;50.852;7.102;2024-01-06T03:55:03;8.20;99.90
10802;DHT22;5453;50.852;7.102;2024-01-06T03:57:37;8.10;99.90
10802;DHT22;5453;50.852;7.102;2024-01-06T04:00:10;8.10;99.90
10802;DHT22;5453;50.852;7.102;2024-01-06T04:02:43;8.10;99.90
10802;DHT22;5453;50.852;7.102;2024-01-06T04:05:15;8.10;99.90
10802;DHT22;5453;50.852;7.102;2024-01-06T04:07:47;8.10;99.90
10802;DHT22;5453;50.852;7.102;2024-01-06T04:10:21;8.10;99.90
10802;DHT22;5453;50.852;7.102;2024-01-06T04:12:54;8.10;99.90
10802;DHT22;5453;50.852;7.102;2024-01-06T04:15:26;8.10;99.90
10802;DHT22;5453;50.852;7.102;2024-01-06T04:18:01;8.10;99.90
10802;DHT22;5453;50.852;7.102;2024-01-06T04:20:34;8.10;99.90
10802;DHT22;5453;50.852;7.102;2024-01-06T04:23:07;8.10;99.90
10802;DHT22;5453;50.852;7.102;2024-01-06T04:25:41;8.20;99.90
10802;DHT22;5453;50.852;7.102;2024-01-06T04:28:13;8.20;99.90
10802;DHT22;5453;50.852;7.102;2024-01-06T04:30:46;8.10;99.90
10802;DHT22;5453;50.852;7.102;2024-01-06T04:33:18;8.20;99.90
10802;DHT22;5453;50.852;7.102;2024-01-06T04:35:50;8.10;99.90
10802;DHT22;5453;50.852;7.102;2024-01-06T04:38:23;8.20;99.90
10802;DHT22;5453;50.852;7.102;2024-01-06T04:40:56;8.10;99.90
10802;DHT22;5453;50.852;7.102;2024-01-06T04:43:29;8.20;99.90
10802;DHT22;5453;50.852;7.102;2024-01-06T04:46:01;8.20;99.90
10802;DHT22;5453;50.852;7.102;2024-01-06T04:48:34;8.20;99.90
10802;DHT22;5453;50.852;7.102;2024-01-06T04:51:06;8.20;99.90
10802;DHT22;5453;50.852;7.102;2024-01-06T04:53:40;8.20;99.90
10802;DHT22;5453;50.852;7.102;2024-01-06T04:56:14;8.20;99.90
10802;DHT22;5453;50.852;7.102;2024-01-06T04:58:46;8.20;99.90
10802;DHT22;5453;50.852;7.102;2024-01-06T05:01:19;8.20;99.90
10802;DHT22;5453;50.852;7.102;2024-01-06T05:03:52;8.20;99.90
10802;DHT22;5453;50.852;7.102;2024-01-06T05:06:24;8.20;99.90
10802;DHT22;5453;50.852;7.102;2024-01-06T05:08:56;8.30;99.90
10802;DHT22;5453;50.852;7.102;2024-01-06T05:11:30;8.20;99.90
10802;DHT22;5453;50.852;7.102;2024-01-06T05:14:03;8.30;99.90
10802;DHT22;5453;50.852;7.102;2024-01-06T05:16:35;8.30;99.90
10802;DHT22;5453;50.852;7.102;2024-01-06T05:19:07;8.30;99.90
10802;DHT22;5453;50.852;7.102;2024-01-06T05:21:40;8.30;99.90
10802;DHT22;5453;50.852;7.102;2024-01-06T05:24:13;8.20;99.90
10802;DHT22;5453;50.852;7.102;2024-01-06T05:26:46;8.30;99.90
10802;DHT22;5453;50.852;7.102;2024-01-06T05:29:19;8.30;99.90
10802;DHT22;5453;50.852;7.102;2024-01-06T05:31:51;8.20;99.90
10802;DHT22;5453;50.852;7.102;2024-01-06T05:34:23;8.20;99.90
10802;DHT22;5453;50.852;7.102;2024-01-06T05:36:56;8.20;99.90
10802;DHT22;5453;50.852;7.102;2024-01-06T05:39:28;8.20;99.90
10802;DHT22;5453;50.852;7.102;2024-01-06T05:42:02;8.30;99.90
10802;DHT22;5453;50.852;7.102;2024-01-06T05:44:35;8.20;99.90
10802;DHT22;5453;50.852;7.102;2024-01-06T05:47:08;8.20;99.90
10802;DHT22;5453;50.852;7.102;2024-01-06T05:49:41;8.30;99.90
10802;DHT22;5453;50.852;7.102;2024-01-06T05:52:15;8.30;99.90
10802;DHT22;5453;50.852;7.102;2024-01-06T05:54:47;8.20;99.90
10802;DHT22;5453;50.852;7.102;2024-01-06T05:57:21;8.20;99.90
10802;DHT22;5453;50.852;7.102;2024-01-06T05:59:54;8.10;99.90
10802;DHT22;5453;50.852;7.102;2024-01-06T06:02:26;8.10;99.90
10802;DHT22;5453;50.852;7.102;2024-01-06T06:04:58;8.00;99.90
10802;DHT22;5453;50.852;7.102;2024-01-06T06:07:31;7.90;99.90
10802;DHT22;5453;50.852;7.102;2024-01-06T06:10:04;7.90;99.90
10802;DHT22;5453;50.852;7.102;2024-01-06T06:12:39;7.90;99.90
10802;DHT22;5453;50.852;7.102;2024-01-06T06:15:12;7.80;99.90
10802;DHT22;5453;50.852;7.102;2024-01-06T06:17:44;7.80;99.90
10802;DHT22;5453;50.852;7.102;2024-01-06T06:20:17;7.70;99.90
10802;DHT22;5453;50.852;7.102;2024-01-06T06:22:50;7.60;99.90
10802;DHT22;5453;50.852;7.102;2024-01-06T06:25:22;7.60;99.90
10802;DHT22;5453;50.852;7.102;2024-01-06T06:27:56;7.50;99.90
10802;DHT22;5453;50.852;7.102;2024-01-06T06:30:28;7.50;99.90
10802;DHT22;5453;50.852;7.102;2024-01-06T06:33:00;7.40;99.90
10802;DHT22;5453;50.852;7.102;2024-01-06T06:35:33;7.50;99.90
10802;DHT22;5453;50.852;7.102;2024-01-06T06:38:05;7.40;99.90
10802;DHT22;5453;50.852;7.102;2024-01-06T06:40:38;7.40;99.90
10802;DHT22;5453;50.852;7.102;2024-01-06T06:43:12;7.30;99.90
10802;DHT22;5453;50.852;7.102;2024-01-06T06:45:44;7.30;99.90
10802;DHT22;5453;50.852;7.102;2024-01-06T06:48:17;7.30;99.90
10802;DHT22;5453;50.852;7.102;2024-01-06T06:50:49;7.30;99.90
10802;DHT22;5453;50.852;7.102;2024-01-06T06:53:22;7.30;99.90
10802;DHT22;5453;50.852;7.102;2024-01-06T06:55:54;7.20;99.90
10802;DHT22;5453;50.852;7.102;2024-01-06T06:58:28;7.20;99.90
10802;DHT22;5453;50.852;7.102;2024-01-06T07:01:00;7.10;99.90
10802;DHT22;5453;50.852;7.102;2024-01-06T07:03:33;7.10;99.90
10802;DHT22;5453;50.852;7.102;2024-01-06T07:06:06;7.10;99.90
10802;DHT22;5453;50.852;7.102;2024-01-06T07:08:38;7.10;99.90
10802;DHT22;5453;50.852;7.102;2024-01-06T07:11:12;7.10;99.90
10802;DHT22;5453;50.852;7.102;2024-01-06T07:13:47;7.10;99.90
10802;DHT22;5453;50.852;7.102;2024-01-06T07:16:19;7.10;99.90
10802;DHT22;5453;50.852;7.102;2024-01-06T07:18:52;7.00;99.90
10802;DHT22;5453;50.852;7.102;2024-01-06T07:21:24;7.00;99.90
10802;DHT22;5453;50.852;7.102;2024-01-06T07:23:56;7.10;99.90
10802;DHT22;5453;50.852;7.102;2024-01-06T07:26:29;7.10;99.90
10802;DHT22;5453;50.852;7.102;2024-01-06T07:29:02;7.00;99.90
10802;DHT22;5453;50.852;7.102;2024-01-06T07:31:35;7.00;99.90
10802;DHT22;5453;50.852;7.102;2024-01-06T07:34:07;7.00;99.90
10802;DHT22;5453;50.852;7.102;2024-01-06T07:36:39;7.00;99.90
10802;DHT22;5453;50.852;7.102;2024-01-06T07:39:12;6.90;99.90
10802;DHT22;5453;50.852;7.102;2024-01-06T07:41:44;7.00;99.90
10802;DHT22;5453;50.852;7.102;2024-01-06T07:44:18;7.00;99.90
10802;DHT22;5453;50.852;7.102;2024-01-06T07:46:55;7.00;99.90
10802;DHT22;5453;50.852;7.102;2024-01-06T07:49:27;7.00;99.90
10802;DHT22;5453;50.852;7.102;2024-01-06T07:52:00;7.10;99.90
10802;DHT22;5453;50.852;7.102;2024-01-06T07:54:32;7.10;99.90
10802;DHT22;5453;50.852;7.102;2024-01-06T07:57:05;7.00;99.90
10802;DHT22;5453;50.852;7.102;2024-01-06T07:59:38;7.00;99.90
10802;DHT22;5453;50.852;7.102;2024-01-06T08:02:11;7.00;99.90
10802;DHT22;5453;50.852;7.102;2024-01-06T08:04:43;7.00;99.90
10802;DHT22;5453;50.852;7.102;2024-01-06T08:07:16;7.00;99.90
10802;DHT22;5453;50.852;7.102;2024-01-06T08:09:48;7.00;99.90
10802;DHT22;5453;50.852;7.102;2024-01-06T08:12:20;7.00;99.90
10802;DHT22;5453;50.852;7.102;2024-01-06T08:14:54;7.00;99.90
10802;DHT22;5453;50.852;7.102;2024-01-06T08:17:27;7.00;99.90
10802;DHT22;5453;50.852;7.102;2024-01-06T08:19:59;7.00;99.90
10802;DHT22;5453;50.852;7.102;2024-01-06T08:22:31;7.00;99.90
10802;DHT22;5453;50.852;7.102;2024-01-06T08:25:05;7.00;99.90
10802;DHT22;5453;50.852;7.102;2024-01-06T08:27:38;7.00;99.90
10802;DHT22;5453;50.852;7.102;2024-01-06T08:30:12;7.00;99.90
10802;DHT22;5453;50.852;7.102;2024-01-06T08:32:44;7.00;99.90
10802;DHT22;5453;50.852;7.102;2024-01-06T08:35:17;7.10;99.90
10802;DHT22;5453;50.852;7.102;2024-01-06T08:37:50;7.10;99.90
10802;DHT22;5453;50.852;7.102;2024-01-06T08:40:22;7.10;99.90
10802;DHT22;5453;50.852;7.102;2024-01-06T08:42:55;7.10;99.90
10802;DHT22;5453;50.852;7.102;2024-01-06T08:45:28;7.10;99.90
10802;DHT22;5453;50.852;7.102;2024-01-06T08:48:01;7.10;99.90
10802;DHT22;5453;50.852;7.102;2024-01-06T08:50:33;7.40;99.90
10802;DHT22;5453;50.852;7.102;2024-01-06T08:53:06;7.80;99.90
10802;DHT22;5453;50.852;7.102;2024-01-06T08:55:38;7.80;99.90
10802;DHT22;5453;50.852;7.102;2024-01-06T08:58:10;7.70;99.90
10802;DHT22;5453;50.852;7.102;2024-01-06T09:00:44;7.60;99.90
10802;DHT22;5453;50.852;7.102;2024-01-06T09:03:17;7.50;99.90
10802;DHT22;5453;50.852;7.102;2024-01-06T09:05:49;7.50;99.90
10802;DHT22;5453;50.852;7.102;2024-01-06T09:08:21;7.40;99.90
10802;DHT22;5453;50.852;7.102;2024-01-06T09:10:55;7.40;99.90
10802;DHT22;5453;50.852;7.102;2024-01-06T09:13:28;7.30;99.90
10802;DHT22;5453;50.852;7.102;2024-01-06T09:16:01;7.30;99.90
10802;DHT22;5453;50.852;7.102;2024-01-06T09:18:34;7.30;99.90
10802;DHT22;5453;50.852;7.102;2024-01-06T09:21:06;7.20;99.90
10802;DHT22;5453;50.852;7.102;2024-01-06T09:23:39;7.10;99.90
10802;DHT22;5453;50.852;7.102;2024-01-06T09:26:11;7.10;99.90
10802;DHT22;5453;50.852;7.102;2024-01-06T09:28:43;7.20;99.90
10802;DHT22;5453;50.852;7.102;2024-01-06T09:31:17;7.10;99.90
10802;DHT22;5453;50.852;7.102;2024-01-06T09:33:50;7.10;99.90
10802;DHT22;5453;50.852;7.102;2024-01-06T09:36:22;7.10;99.90
10802;DHT22;5453;50.852;7.102;2024-01-06T09:38:54;7.10;99.90
10802;DHT22;5453;50.852;7.102;2024-01-06T09:41:27;7.10;99.90
10802;DHT22;5453;50.852;7.102;2024-01-06T09:43:59;7.10;99.90
10802;DHT22;5453;50.852;7.102;2024-01-06T09:46:34;7.10;99.90
10802;DHT22;5453;50.852;7.102;2024-01-06T09:49:08;7.10;99.90
10802;DHT22;5453;50.852;7.102;2024-01-06T09:51:41;7.10;99.90
10802;DHT22;5453;50.852;7.102;2024-01-06T09:54:13;7.10;99.90
10802;DHT22;5453;50.852;7.102;2024-01-06T09:56:46;7.10;99.90
10802;DHT22;5453;50.852;7.102;2024-01-06T09:59:19;7.10;99.90
10802;DHT22;5453;50.852;7.102;2024-01-06T10:01:53;7.10;99.90
10802;DHT22;5453;50.852;7.102;2024-01-06T10:04:27;7.10;99.90
10802;DHT22;5453;50.852;7.102;2024-01-06T10:06:59;7.10;99.90
10802;DHT22;5453;50.852;7.102;2024-01-06T10:09:32;7.00;99.90
10802;DHT22;5453;50.852;7.102;2024-01-06T10:12:05;6.90;99.90
10802;DHT22;5453;50.852;7.102;2024-01-06T10:14:38;6.90;99.90
10802;DHT22;5453;50.852;7.102;2024-01-06T10:17:11;6.90;99.90
10802;DHT22;5453;50.852;7.102;2024-01-06T10:19:45;6.90;99.90
10802;DHT22;5453;50.852;7.102;2024-01-06T10:22:18;6.90;99.90
10802;DHT22;5453;50.852;7.102;2024-01-06T10:24:51;6.90;99.90
10802;DHT22;5453;50.852;7.102;2024-01-06T10:27:23;6.90;99.90
10802;DHT22;5453;50.852;7.102;2024-01-06T10:29:55;6.90;99.90
10802;DHT22;5453;50.852;7.102;2024-01-06T10:32:32;6.90;99.90
10802;DHT22;5453;50.852;7.102;2024-01-06T10:35:04;7.00;99.90
10802;DHT22;5453;50.852;7.102;2024-01-06T10:37:37;6.90;99.90
10802;DHT22;5453;50.852;7.102;2024-01-06T10:40:13;7.00;99.90
10802;DHT22;5453;50.852;7.102;2024-01-06T10:42:46;7.00;99.90
10802;DHT22;5453;50.852;7.102;2024-01-06T10:45:19;7.00;99.90
10802;DHT22;5453;50.852;7.102;2024-01-06T10:47:55;7.00;99.90
10802;DHT22;5453;50.852;7.102;2024-01-06T10:50:27;7.00;99.90
10802;DHT22;5453;50.852;7.102;2024-01-06T10:53:01;7.00;99.90
10802;DHT22;5453;50.852;7.102;2024-01-06T10:55:35;6.90;99.90
10802;DHT22;5453;50.852;7.102;2024-01-06T10:58:09;7.00;99.90
10802;DHT22;5453;50.852;7.102;2024-01-06T11:00:42;7.00;99.90
10802;DHT22;5453;50.852;7.102;2024-01-06T11:03:17;7.00;99.90
10802;DHT22;5453;50.852;7.102;2024-01-06T11:05:50;6.90;99.90
10802;DHT22;5453;50.852;7.102;2024-01-06T11:08:22;6.90;99.90
10802;DHT22;5453;50.852;7.102;2024-01-06T11:10:56;7.20;99.90
10802;DHT22;5453;50.852;7.102;2024-01-06T11:13:29;7.40;99.90
10802;DHT22;5453;50.852;7.102;2024-01-06T11:16:01;7.60;99.90
10802;DHT22;5453;50.852;7.102;2024-01-06T11:18:38;7.60;99.90
10802;DHT22;5453;50.852;7.102;2024-01-06T11:21:19;7.60;99.90
10802;DHT22;5453;50.852;7.102;2024-01-06T11:24:14;7.50;99.90
10802;DHT22;5453;50.852;7.102;2024-01-06T11:26:52;7.40;99.90
10802;DHT22;5453;50.852;7.102;2024-01-06T11:29:24;7.30;99.90
10802;DHT22;5453;50.852;7.102;2024-01-06T11:32:16;7.20;99.90
10802;DHT22;5453;50.852;7.102;2024-01-06T11:34:53;7.20;99.90
10802;DHT22;5453;50.852;7.102;2024-01-06T11:37:36;7.10;99.90
10802;DHT22;5453;50.852;7.102;2024-01-06T11:40:21;7.10;99.90
10802;DHT22;5453;50.852;7.102;2024-01-06T11:43:00;7.10;99.90
10802;DHT22;5453;50.852;7.102;2024-01-06T11:45:34;7.00;99.90
10802;DHT22;5453;50.852;7.102;2024-01-06T11:48:08;7.00;99.90
10802;DHT22;5453;50.852;7.102;2024-01-06T11:50:44;7.00;99.90
10802;DHT22;5453;50.852;7.102;2024-01-06T11:53:16;7.00;99.90
10802;DHT22;5453;50.852;7.102;2024-01-06T11:55:49;6.90;99.90
10802;DHT22;5453;50.852;7.102;2024-01-06T11:58:22;6.90;99.90
10802;DHT22;5453;50.852;7.102;2024-01-06T12:00:57;6.90;99.90
10802;DHT22;5453;50.852;7.102;2024-01-06T12:03:30;6.90;99.90
10802;DHT22;5453;50.852;7.102;2024-01-06T12:06:04;6.90;99.90
10802;DHT22;5453;50.852;7.102;2024-01-06T12:08:37;6.80;99.90
10802;DHT22;5453;50.852;7.102;2024-01-06T12:11:09;6.80;99.90
10802;DHT22;5453;50.852;7.102;2024-01-06T12:13:42;6.80;99.90
10802;DHT22;5453;50.852;7.102;2024-01-06T12:16:14;6.80;99.90
10802;DHT22;5453;50.852;7.102;2024-01-06T12:18:47;6.80;99.90
10802;DHT22;5453;50.852;7.102;2024-01-06T12:21:21;6.80;99.90
10802;DHT22;5453;50.852;7.102;2024-01-06T12:23:53;6.80;99.90
10802;DHT22;5453;50.852;7.102;2024-01-06T12:26:26;6.80;99.90
10802;DHT22;5453;50.852;7.102;2024-01-06T12:29:04;6.80;99.90
10802;DHT22;5453;50.852;7.102;2024-01-06T12:31:36;6.80;99.90
10802;DHT22;5453;50.852;7.102;2024-01-06T12:34:10;6.80;99.90
10802;DHT22;5453;50.852;7.102;2024-01-06T12:36:44;6.80;99.90
10802;DHT22;5453;50.852;7.102;2024-01-06T12:39:17;6.70;99.90
10802;DHT22;5453;50.852;7.102;2024-01-06T12:41:50;6.70;99.90
10802;DHT22;5453;50.852;7.102;2024-01-06T12:44:23;6.70;99.90
10802;DHT22;5453;50.852;7.102;2024-01-06T12:46:56;7.60;99.90
10802;DHT22;5453;50.852;7.102;2024-01-06T12:49:28;9.00;99.90
10802;DHT22;5453;50.852;7.102;2024-01-06T12:52:02;9.60;99.90
10802;DHT22;5453;50.852;7.102;2024-01-06T12:54:35;9.40;99.90
10802;DHT22;5453;50.852;7.102;2024-01-06T12:57:08;9.00;99.90
10802;DHT22;5453;50.852;7.102;2024-01-06T12:59:40;8.60;99.90
10802;DHT22;5453;50.852;7.102;2024-01-06T13:02:13;8.20;99.90
10802;DHT22;5453;50.852;7.102;2024-01-06T13:04:45;7.90;99.90
10802;DHT22;5453;50.852;7.102;2024-01-06T13:07:19;7.60;99.90
10802;DHT22;5453;50.852;7.102;2024-01-06T13:09:53;7.40;99.90
10802;DHT22;5453;50.852;7.102;2024-01-06T13:12:25;7.20;99.90
10802;DHT22;5453;50.852;7.102;2024-01-06T13:14:59;7.10;99.90
10802;DHT22;5453;50.852;7.102;2024-01-06T13:17:32;6.90;99.90
10802;DHT22;5453;50.852;7.102;2024-01-06T13:20:06;6.80;99.90
10802;DHT22;5453;50.852;7.102;2024-01-06T13:22:41;6.80;99.90
10802;DHT22;5453;50.852;7.102;2024-01-06T13:25:13;6.70;99.90
10802;DHT22;5453;50.852;7.102;2024-01-06T13:27:46;6.70;99.90
10802;DHT22;5453;50.852;7.102;2024-01-06T13:30:18;6.60;99.90
10802;DHT22;5453;50.852;7.102;2024-01-06T13:32:51;6.60;99.90
10802;DHT22;5453;50.852;7.102;2024-01-06T13:35:25;6.50;99.90
10802;DHT22;5453;50.852;7.102;2024-01-06T13:37:59;6.50;99.90
10802;DHT22;5453;50.852;7.102;2024-01-06T13:40:31;6.50;99.90
10802;DHT22;5453;50.852;7.102;2024-01-06T13:43:03;6.50;99.90
10802;DHT22;5453;50.852;7.102;2024-01-06T13:45:39;6.50;99.90
10802;DHT22;5453;50.852;7.102;2024-01-06T13:48:12;6.50;99.90
10802;DHT22;5453;50.852;7.102;2024-01-06T13:50:45;6.40;99.90
10802;DHT22;5453;50.852;7.102;2024-01-06T13:53:18;6.40;99.90
10802;DHT22;5453;50.852;7.102;2024-01-06T13:55:51;6.30;99.90
10802;DHT22;5453;50.852;7.102;2024-01-06T13:58:23;6.30;99.90
10802;DHT22;5453;50.852;7.102;2024-01-06T14:00:56;6.30;99.90
10802;DHT22;5453;50.852;7.102;2024-01-06T14:03:28;6.30;99.90
10802;DHT22;5453;50.852;7.102;2024-01-06T14:06:01;6.30;99.90
10802;DHT22;5453;50.852;7.102;2024-01-06T14:08:35;6.30;99.90
10802;DHT22;5453;50.852;7.102;2024-01-06T14:11:07;6.20;99.90
10802;DHT22;5453;50.852;7.102;2024-01-06T14:13:39;6.20;99.90
10802;DHT22;5453;50.852;7.102;2024-01-06T14:16:12;6.20;99.90
10802;DHT22;5453;50.852;7.102;2024-01-06T14:18:44;6.20;99.90
10802;DHT22;5453;50.852;7.102;2024-01-06T14:21:17;6.10;99.90
10802;DHT22;5453;50.852;7.102;2024-01-06T14:23:51;6.10;99.90
10802;DHT22;5453;50.852;7.102;2024-01-06T14:26:24;6.10;99.90
10802;DHT22;5453;50.852;7.102;2024-01-06T14:28:56;6.10;99.90
10802;DHT22;5453;50.852;7.102;2024-01-06T14:31:29;6.10;99.90
10802;DHT22;5453;50.852;7.102;2024-01-06T14:34:01;6.00;99.90
10802;DHT22;5453;50.852;7.102;2024-01-06T14:36:33;6.00;99.90
10802;DHT22;5453;50.852;7.102;2024-01-06T14:39:07;6.00;99.90
10802;DHT22;5453;50.852;7.102;2024-01-06T14:41:39;6.00;99.90
10802;DHT22;5453;50.852;7.102;2024-01-06T14:44:12;5.90;99.90
10802;DHT22;5453;50.852;7.102;2024-01-06T14:46:45;5.90;99.90
10802;DHT22;5453;50.852;7.102;2024-01-06T14:49:17;5.90;99.90
10802;DHT22;5453;50.852;7.102;2024-01-06T14:51:49;5.90;99.90
10802;DHT22;5453;50.852;7.102;2024-01-06T14:54:23;5.90;99.90
10802;DHT22;5453;50.852;7.102;2024-01-06T14:56:55;5.80;99.90
10802;DHT22;5453;50.852;7.102;2024-01-06T14:59:28;5.80;99.90
10802;DHT22;5453;50.852;7.102;2024-01-06T15:02:01;5.90;99.90
10802;DHT22;5453;50.852;7.102;2024-01-06T15:04:33;5.90;99.90
10802;DHT22;5453;50.852;7.102;2024-01-06T15:07:06;5.90;99.90
10802;DHT22;5453;50.852;7.102;2024-01-06T15:09:41;5.90;99.90
10802;DHT22;5453;50.852;7.102;2024-01-06T15:12:13;6.00;99.90
10802;DHT22;5453;50.852;7.102;2024-01-06T15:14:46;6.00;99.90
10802;DHT22;5453;50.852;7.102;2024-01-06T15:17:18;5.90;99.90
10802;DHT22;5453;50.852;7.102;2024-01-06T15:19:52;5.90;99.90
10802;DHT22;5453;50.852;7.102;2024-01-06T15:22:24;5.90;99.90
10802;DHT22;5453;50.852;7.102;2024-01-06T15:24:58;5.90;99.90
10802;DHT22;5453;50.852;7.102;2024-01-06T15:27:36;5.80;99.90
10802;DHT22;5453;50.852;7.102;2024-01-06T15:30:09;5.80;99.90
10802;DHT22;5453;50.852;7.102;2024-01-06T15:32:42;5.80;99.90
10802;DHT22;5453;50.852;7.102;2024-01-06T15:35:14;5.80;99.90
10802;DHT22;5453;50.852;7.102;2024-01-06T15:37:47;5.80;99.90
10802;DHT22;5453;50.852;7.102;2024-01-06T15:40:20;5.80;99.90
10802;DHT22;5453;50.852;7.102;2024-01-06T15:42:53;5.80;99.90
10802;DHT22;5453;50.852;7.102;2024-01-06T15:45:25;5.70;99.90
10802;DHT22;5453;50.852;7.102;2024-01-06T15:47:58;5.70;99.90
10802;DHT22;5453;50.852;7.102;2024-01-06T15:50:30;5.70;99.90
10802;DHT22;5453;50.852;7.102;2024-01-06T15:53:02;5.70;99.90
10802;DHT22;5453;50.852;7.102;2024-01-06T15:55:37;5.60;99.90
10802;DHT22;5453;50.852;7.102;2024-01-06T15:58:09;5.60;99.90
10802;DHT22;5453;50.852;7.102;2024-01-06T16:00:42;5.60;99.90
10802;DHT22;5453;50.852;7.102;2024-01-06T16:03:14;5.60;99.90
10802;DHT22;5453;50.852;7.102;2024-01-06T16:05:46;5.60;99.90
10802;DHT22;5453;50.852;7.102;2024-01-06T16:08:19;5.60;99.90
10802;DHT22;5453;50.852;7.102;2024-01-06T16:10:52;5.60;99.90
10802;DHT22;5453;50.852;7.102;2024-01-06T16:13:26;5.60;99.90
10802;DHT22;5453;50.852;7.102;2024-01-06T16:15:58;5.60;99.90
10802;DHT22;5453;50.852;7.102;2024-01-06T16:18:32;5.60;99.90
10802;DHT22;5453;50.852;7.102;2024-01-06T16:21:04;5.50;99.90
10802;DHT22;5453;50.852;7.102;2024-01-06T16:23:36;5.50;99.90
10802;DHT22;5453;50.852;7.102;2024-01-06T16:26:10;5.50;99.90
10802;DHT22;5453;50.852;7.102;2024-01-06T16:28:42;5.50;99.90
10802;DHT22;5453;50.852;7.102;2024-01-06T16:31:15;5.50;99.90
10802;DHT22;5453;50.852;7.102;2024-01-06T16:33:48;5.50;99.90
10802;DHT22;5453;50.852;7.102;2024-01-06T16:36:21;5.40;99.90
10802;DHT22;5453;50.852;7.102;2024-01-06T16:38:54;5.40;99.90